Time;durP1;ratioP1;P1;durP2;ratioP2;P2;SDS_P1;SDS_P2;PMS_P1;PMS_P2;Temp;Humidity;BMP_temperature;BMP_pressure;BME280_temperature;BME280_humidity;BME280_pressure;Samples;Min_cycle;Max_cycle;Signal;HPM_P1;HPM_P2
2020/12/26 00:01:14;;;;;;;11.25;5.32;;;4.50;90.90;;;;;;5065512;28;20036;-71
2020/12/26 00:03:40;;;;;;;15.55;6.13;;;4.50;90.90;;;;;;5070928;28;20032;-71
2020/12/26 00:06:06;;;;;;;12.65;6.07;;;4.50;91.00;;;;;;5071132;28;20159;-73
2020/12/26 00:08:35;;;;;;;10.15;6.18;;;4.50;90.90;;;;;;5065540;28;20032;-71
2020/12/26 00:11:01;;;;;;;11.75;6.20;;;4.50;90.80;;;;;;5071857;28;20103;-74
2020/12/26 00:13:27;;;;;;;13.30;6.30;;;4.50;90.90;;;;;;5067587;28;20551;-71
2020/12/26 00:15:53;;;;;;;11.57;6.18;;;4.50;90.80;;;;;;5065336;28;20587;-72
2020/12/26 00:18:19;;;;;;;10.75;6.13;;;4.40;90.60;;;;;;5062052;28;20542;-71
2020/12/26 00:20:45;;;;;;;10.60;6.00;;;4.40;90.70;;;;;;5062595;28;20064;-73
2020/12/26 00:23:10;;;;;;;13.40;6.10;;;4.30;90.90;;;;;;5067181;28;20063;-71
2020/12/26 00:25:36;;;;;;;12.77;5.63;;;4.30;91.00;;;;;;5068465;28;20441;-70
2020/12/26 00:28:04;;;;;;;9.50;4.97;;;4.30;91.00;;;;;;5085079;28;20047;-71
2020/12/26 00:30:30;;;;;;;11.00;4.85;;;4.30;91.10;;;;;;5067282;28;20127;-71
2020/12/26 00:32:55;;;;;;;10.02;5.22;;;4.20;91.00;;;;;;5069813;28;20163;-72
2020/12/26 00:35:21;;;;;;;13.55;5.10;;;4.20;90.90;;;;;;5066977;28;20174;-72
2020/12/26 00:37:47;;;;;;;11.30;5.35;;;4.30;90.90;;;;;;5065814;28;20014;-71
2020/12/26 00:40:12;;;;;;;12.50;5.20;;;4.30;90.80;;;;;;5064881;28;20059;-71
2020/12/26 00:42:38;;;;;;;11.35;5.43;;;4.30;90.70;;;;;;5066793;28;20036;-73
2020/12/26 00:45:04;;;;;;;9.60;4.75;;;4.30;90.70;;;;;;5067937;28;20021;-74
2020/12/26 00:47:29;;;;;;;11.98;5.50;;;4.20;90.60;;;;;;5064129;28;20025;-71
2020/12/26 00:49:55;;;;;;;8.43;4.75;;;4.20;90.60;;;;;;5061010;28;20041;-73
2020/12/26 00:52:20;;;;;;;10.45;5.15;;;4.20;90.50;;;;;;5064409;28;20475;-74
2020/12/26 00:54:46;;;;;;;9.77;5.20;;;4.20;90.30;;;;;;5064175;28;20045;-73
2020/12/26 00:57:11;;;;;;;10.50;5.63;;;4.10;90.40;;;;;;5068518;28;20040;-72
2020/12/26 00:59:38;;;;;;;10.48;5.65;;;4.10;90.30;;;;;;5063894;28;20036;-74
2020/12/26 01:02:04;;;;;;;10.70;5.80;;;4.10;90.50;;;;;;5063933;28;20039;-72
2020/12/26 01:04:29;;;;;;;16.55;5.45;;;4.10;90.60;;;;;;5082266;28;20111;-75
2020/12/26 01:06:56;;;;;;;13.02;5.90;;;4.10;90.50;;;;;;5058582;28;20050;-72
2020/12/26 01:09:23;;;;;;;10.88;5.53;;;4.10;90.50;;;;;;5050664;28;20114;-73
2020/12/26 01:11:49;;;;;;;10.05;5.10;;;4.10;90.50;;;;;;5046207;28;20026;-72
2020/12/26 01:14:15;;;;;;;8.90;5.30;;;4.00;90.50;;;;;;5045209;28;20087;-73
2020/12/26 01:16:42;;;;;;;11.90;5.00;;;4.00;90.60;;;;;;5047783;28;20541;-75
2020/12/26 01:19:07;;;;;;;9.95;5.30;;;4.00;90.50;;;;;;5048081;28;20052;-74
2020/12/26 01:21:33;;;;;;;11.18;4.90;;;4.00;90.50;;;;;;5043308;28;20114;-72
2020/12/26 01:23:59;;;;;;;10.02;5.18;;;4.00;90.60;;;;;;5046441;28;20033;-76
2020/12/26 01:26:24;;;;;;;11.45;5.25;;;4.00;90.40;;;;;;5043849;28;20104;-71
2020/12/26 01:28:50;;;;;;;10.15;5.10;;;3.90;90.40;;;;;;5059836;28;20039;-73
2020/12/26 01:31:16;;;;;;;9.85;4.78;;;3.80;90.50;;;;;;5071893;28;20063;-73
2020/12/26 01:33:42;;;;;;;10.35;4.85;;;3.80;90.50;;;;;;5059281;28;20036;-76
2020/12/26 01:36:12;;;;;;;10.25;5.10;;;3.80;90.50;;;;;;5040406;28;20030;-73
2020/12/26 01:38:38;;;;;;;15.27;5.15;;;3.70;90.50;;;;;;5044954;28;20422;-74
2020/12/26 01:41:04;;;;;;;11.10;5.53;;;3.70;90.30;;;;;;5046271;28;20480;-73
2020/12/26 01:43:29;;;;;;;13.38;4.95;;;3.60;90.30;;;;;;5066867;28;20040;-73
2020/12/26 01:45:55;;;;;;;9.00;4.55;;;3.60;90.30;;;;;;5061713;28;20044;-79
2020/12/26 01:48:21;;;;;;;9.77;4.70;;;3.60;90.20;;;;;;5052635;28;20547;-74
2020/12/26 01:50:48;;;;;;;11.25;5.30;;;3.60;90.10;;;;;;5060147;28;20017;-73
2020/12/26 01:53:14;;;;;;;10.68;4.85;;;3.60;89.90;;;;;;5054274;28;20499;-73
2020/12/26 01:55:41;;;;;;;10.57;5.78;;;3.60;89.90;;;;;;5064946;28;20523;-73
2020/12/26 01:58:12;;;;;;;9.25;4.70;;;3.60;89.70;;;;;;5064472;28;20028;-72
2020/12/26 02:00:39;;;;;;;18.85;5.43;;;3.50;89.70;;;;;;5067031;28;20113;-73
2020/12/26 02:03:04;;;;;;;12.27;5.10;;;3.60;89.60;;;;;;5069561;28;20033;-72
2020/12/26 02:05:30;;;;;;;14.27;6.32;;;3.50;89.40;;;;;;5068734;28;20036;-73
2020/12/26 02:07:56;;;;;;;9.13;4.68;;;3.50;89.40;;;;;;5056015;28;20305;-73
2020/12/26 02:10:22;;;;;;;10.38;4.60;;;3.50;89.40;;;;;;5067797;28;20044;-73
2020/12/26 02:12:48;;;;;;;11.45;4.65;;;3.40;89.20;;;;;;5078620;28;20039;-73
2020/12/26 02:15:14;;;;;;;9.77;4.80;;;3.40;89.00;;;;;;5063886;28;20052;-75
2020/12/26 02:17:40;;;;;;;10.10;4.20;;;3.50;88.70;;;;;;5062789;28;20063;-75
2020/12/26 02:20:07;;;;;;;12.35;4.72;;;3.40;88.70;;;;;;5058636;28;20337;-74
2020/12/26 02:22:32;;;;;;;7.28;3.45;;;3.40;88.60;;;;;;5059507;28;20032;-73
2020/12/26 02:24:58;;;;;;;10.90;4.00;;;3.40;88.50;;;;;;5053066;28;20033;-73
2020/12/26 02:27:23;;;;;;;9.85;4.35;;;3.40;88.50;;;;;;5060356;28;20033;-73
2020/12/26 02:29:49;;;;;;;9.95;3.65;;;3.30;88.20;;;;;;5063428;28;20041;-73
2020/12/26 02:32:14;;;;;;;9.77;3.90;;;3.30;88.10;;;;;;5060583;28;20116;-73
2020/12/26 02:34:40;;;;;;;10.77;3.90;;;3.30;88.10;;;;;;5064453;28;20082;-72
2020/12/26 02:37:06;;;;;;;8.57;3.70;;;3.30;88.00;;;;;;5067237;28;20033;-73
2020/12/26 02:39:32;;;;;;;7.38;3.28;;;3.30;87.90;;;;;;5058966;28;20490;-73
2020/12/26 02:41:57;;;;;;;12.93;3.53;;;3.30;87.90;;;;;;5058755;28;20436;-73
2020/12/26 02:44:23;;;;;;;6.97;3.17;;;3.30;87.80;;;;;;5054348;28;20020;-73
2020/12/26 02:46:50;;;;;;;11.45;3.70;;;3.30;87.80;;;;;;5063895;28;20153;-72
2020/12/26 02:49:17;;;;;;;8.55;3.50;;;3.20;87.70;;;;;;5065830;28;20135;-74
2020/12/26 02:51:43;;;;;;;10.77;3.65;;;3.20;87.60;;;;;;5066342;28;20033;-74
2020/12/26 02:54:11;;;;;;;8.75;3.83;;;3.20;87.50;;;;;;5067442;28;20047;-71
2020/12/26 02:56:40;;;;;;;8.38;3.42;;;3.10;87.60;;;;;;5053189;28;20025;-73
2020/12/26 02:59:07;;;;;;;5.88;3.35;;;3.20;87.50;;;;;;5064293;28;20032;-73
2020/12/26 03:01:33;;;;;;;11.05;3.60;;;3.20;87.20;;;;;;5070525;28;20043;-76
2020/12/26 03:03:59;;;;;;;7.72;3.72;;;3.20;86.90;;;;;;5073703;28;20440;-71
2020/12/26 03:06:25;;;;;;;10.52;4.20;;;3.10;87.00;;;;;;5061314;28;20033;-72
2020/12/26 03:08:50;;;;;;;8.93;4.15;;;3.10;87.10;;;;;;5056919;28;20078;-72
2020/12/26 03:11:16;;;;;;;12.60;4.18;;;3.20;86.80;;;;;;5046863;28;20041;-72
2020/12/26 03:13:42;;;;;;;10.77;3.80;;;3.20;86.70;;;;;;5062992;28;20032;-71
2020/12/26 03:16:07;;;;;;;7.50;3.38;;;3.20;86.90;;;;;;5064391;28;20064;-72
2020/12/26 03:18:33;;;;;;;6.78;3.42;;;3.20;86.80;;;;;;5055043;28;20033;-71
2020/12/26 03:20:58;;;;;;;11.82;4.25;;;3.10;86.90;;;;;;5069214;28;20033;-72
2020/12/26 03:23:24;;;;;;;8.82;3.47;;;3.10;87.00;;;;;;5070572;28;20035;-72
2020/12/26 03:25:50;;;;;;;9.25;3.55;;;3.10;87.10;;;;;;5060936;28;20033;-74
2020/12/26 03:28:15;;;;;;;8.38;3.47;;;3.10;87.20;;;;;;5068887;28;20055;-72
2020/12/26 03:30:41;;;;;;;10.70;3.85;;;3.00;87.10;;;;;;5069627;28;20423;-72
2020/12/26 03:33:06;;;;;;;10.43;3.70;;;3.10;87.30;;;;;;5062231;28;20047;-72
2020/12/26 03:35:32;;;;;;;8.68;3.88;;;3.00;87.30;;;;;;5058929;28;20037;-72
2020/12/26 03:37:58;;;;;;;8.32;4.20;;;2.90;87.40;;;;;;5065105;28;20027;-74
2020/12/26 03:40:23;;;;;;;8.70;4.30;;;2.90;87.40;;;;;;5071317;28;20086;-71
2020/12/26 03:42:49;;;;;;;10.23;3.85;;;2.90;87.30;;;;;;5063608;28;20468;-71
2020/12/26 03:45:15;;;;;;;8.57;4.00;;;2.80;87.40;;;;;;5056497;28;20032;-72
2020/12/26 03:47:40;;;;;;;8.40;4.15;;;2.80;87.50;;;;;;5070156;28;20035;-71
2020/12/26 03:50:06;;;;;;;8.70;4.30;;;2.80;87.50;;;;;;5069116;28;20506;-77
2020/12/26 03:52:31;;;;;;;9.70;4.47;;;2.80;87.50;;;;;;5061035;28;20568;-72
2020/12/26 03:54:57;;;;;;;13.07;4.60;;;2.70;87.60;;;;;;5067455;28;20503;-72
2020/12/26 03:57:23;;;;;;;9.93;3.88;;;2.70;87.70;;;;;;5061280;28;20031;-72
2020/12/26 03:59:48;;;;;;;9.50;4.10;;;2.70;87.80;;;;;;5068844;28;20383;-72
2020/12/26 04:02:14;;;;;;;11.02;4.47;;;2.70;87.80;;;;;;5073129;28;20388;-73
2020/12/26 04:04:40;;;;;;;8.77;4.60;;;2.70;87.70;;;;;;5049624;28;20037;-73
2020/12/26 04:07:05;;;;;;;8.88;4.07;;;2.70;87.60;;;;;;5062382;28;20040;-72
2020/12/26 04:09:31;;;;;;;10.43;4.25;;;2.70;87.60;;;;;;5066120;28;20060;-72
2020/12/26 04:11:57;;;;;;;10.60;4.60;;;2.60;87.80;;;;;;5079725;28;20082;-73
2020/12/26 04:14:23;;;;;;;9.63;4.45;;;2.60;88.00;;;;;;5065218;28;20033;-75
2020/12/26 04:16:55;;;;;;;9.02;4.57;;;2.60;88.10;;;;;;5064581;28;20036;-72
2020/12/26 04:19:21;;;;;;;9.68;4.50;;;2.60;88.00;;;;;;5065805;28;20494;-72
2020/12/26 04:21:46;;;;;;;12.48;4.80;;;2.60;88.10;;;;;;5063336;28;20056;-71
2020/12/26 04:24:12;;;;;;;12.10;5.05;;;2.60;88.10;;;;;;5053689;28;20484;-72
2020/12/26 04:26:37;;;;;;;10.15;4.95;;;2.60;88.20;;;;;;5062366;28;20356;-71
2020/12/26 04:29:05;;;;;;;11.18;4.72;;;2.50;88.30;;;;;;5062062;28;20066;-72
2020/12/26 04:31:31;;;;;;;11.15;4.93;;;2.50;88.50;;;;;;5075475;28;20123;-72
2020/12/26 04:33:57;;;;;;;10.00;5.00;;;2.50;88.50;;;;;;5033669;28;20029;-71
2020/12/26 04:36:23;;;;;;;11.13;4.85;;;2.50;88.50;;;;;;5040501;28;20028;-72
2020/12/26 04:38:48;;;;;;;10.63;4.78;;;2.40;88.50;;;;;;5050953;28;20028;-73
2020/12/26 04:41:18;;;;;;;11.63;4.70;;;2.40;88.50;;;;;;5061540;28;20039;-72
2020/12/26 04:43:45;;;;;;;10.15;4.95;;;2.50;88.40;;;;;;5048738;28;20040;-73
2020/12/26 04:46:17;;;;;;;10.40;4.72;;;2.40;88.30;;;;;;5067656;28;20035;-72
2020/12/26 04:48:49;;;;;;;11.73;5.25;;;2.40;88.40;;;;;;5062336;28;20051;-71
2020/12/26 04:51:17;;;;;;;11.02;5.10;;;2.40;88.70;;;;;;5068056;28;20052;-73
2020/12/26 04:53:44;;;;;;;10.20;4.97;;;2.40;88.80;;;;;;5064402;28;20022;-72
2020/12/26 04:56:10;;;;;;;13.25;5.25;;;2.30;88.80;;;;;;5064767;28;20382;-73
2020/12/26 04:58:40;;;;;;;11.70;5.57;;;2.30;88.80;;;;;;5059101;28;21131;-72
2020/12/26 05:01:06;;;;;;;17.42;6.03;;;2.30;88.70;;;;;;5066488;28;20037;-72
2020/12/26 05:03:34;;;;;;;8.88;4.30;;;2.30;88.70;;;;;;5073081;28;20037;-72
2020/12/26 05:06:05;;;;;;;11.15;5.07;;;2.30;88.60;;;;;;5042873;28;20033;-72
2020/12/26 05:08:31;;;;;;;9.73;4.82;;;2.30;88.70;;;;;;5062039;28;20076;-71
2020/12/26 05:10:57;;;;;;;13.68;5.95;;;2.30;88.70;;;;;;5048546;28;20484;-73
2020/12/26 05:13:23;;;;;;;13.48;4.85;;;2.30;88.40;;;;;;5048214;28;20033;-72
2020/12/26 05:15:52;;;;;;;12.10;4.70;;;2.30;88.50;;;;;;5046511;28;20414;-71
2020/12/26 05:18:18;;;;;;;11.55;4.60;;;2.30;88.50;;;;;;5046610;28;20124;-73
2020/12/26 05:20:44;;;;;;;10.88;5.13;;;2.20;88.50;;;;;;5049706;28;20120;-73
2020/12/26 05:23:14;;;;;;;9.25;4.30;;;2.20;88.70;;;;;;5046619;28;20075;-72
2020/12/26 05:25:43;;;;;;;14.93;5.45;;;2.20;88.80;;;;;;5045327;28;20468;-72
2020/12/26 05:28:16;;;;;;;8.43;4.15;;;2.20;88.80;;;;;;5045375;28;20071;-73
2020/12/26 05:30:47;;;;;;;11.93;4.47;;;2.10;88.80;;;;;;5050312;28;20033;-76
2020/12/26 05:33:13;;;;;;;11.27;4.50;;;2.10;88.80;;;;;;5034917;28;20029;-72
2020/12/26 05:35:42;;;;;;;11.00;4.65;;;2.10;88.70;;;;;;5042572;28;20090;-72
2020/12/26 05:38:22;;;;;;;9.88;4.60;;;2.10;88.70;;;;;;5054070;28;20029;-72
2020/12/26 05:40:54;;;;;;;10.13;4.20;;;2.10;88.70;;;;;;5057105;28;20044;-72
2020/12/26 05:43:30;;;;;;;7.60;4.05;;;2.10;88.70;;;;;;5063740;28;20033;-75
2020/12/26 05:45:57;;;;;;;13.30;4.70;;;2.10;88.80;;;;;;5059022;28;20041;-72
2020/12/26 05:48:25;;;;;;;10.23;4.88;;;2.10;88.70;;;;;;5037614;28;20021;-73
2020/12/26 05:50:56;;;;;;;10.52;5.05;;;2.10;88.70;;;;;;5036150;28;20037;-73
2020/12/26 05:53:24;;;;;;;11.63;4.93;;;2.10;88.90;;;;;;5064383;28;20039;-73
2020/12/26 05:55:49;;;;;;;9.98;4.80;;;2.10;88.80;;;;;;5063034;28;20056;-72
2020/12/26 05:58:20;;;;;;;9.60;4.53;;;2.00;88.90;;;;;;5053853;28;20067;-73
2020/12/26 06:00:46;;;;;;;7.47;4.00;;;2.00;88.80;;;;;;5062266;28;20051;-73
2020/12/26 06:03:23;;;;;;;9.05;4.50;;;2.00;88.90;;;;;;5051625;28;20557;-72
2020/12/26 06:05:55;;;;;;;12.45;5.20;;;2.00;89.00;;;;;;5056066;28;20132;-72
2020/12/26 06:08:21;;;;;;;13.27;5.03;;;1.90;89.00;;;;;;5064959;28;20447;-73
2020/12/26 06:10:53;;;;;;;11.80;5.10;;;1.90;89.10;;;;;;5048763;28;20033;-73
2020/12/26 06:13:20;;;;;;;10.40;4.43;;;1.90;89.10;;;;;;5055588;28;20032;-72
2020/12/26 06:15:51;;;;;;;13.27;4.88;;;1.80;89.20;;;;;;5039952;28;20025;-73
2020/12/26 06:18:22;;;;;;;9.82;4.43;;;1.80;89.10;;;;;;5042032;28;20022;-72
2020/12/26 06:20:52;;;;;;;18.77;5.45;;;1.90;89.10;;;;;;5058808;28;20533;-72
2020/12/26 06:23:22;;;;;;;8.80;4.75;;;1.80;88.90;;;;;;5063912;28;20024;-73
2020/12/26 06:25:49;;;;;;;8.88;4.47;;;1.80;89.00;;;;;;5067260;28;20028;-72
2020/12/26 06:28:20;;;;;;;10.20;5.18;;;1.70;88.90;;;;;;5053294;28;20572;-72
2020/12/26 06:30:47;;;;;;;11.10;5.70;;;1.70;89.00;;;;;;5038524;28;20060;-73
2020/12/26 06:33:13;;;;;;;8.57;4.75;;;1.70;89.10;;;;;;5046501;28;20041;-72
2020/12/26 06:35:42;;;;;;;9.13;4.60;;;1.70;89.10;;;;;;5045563;28;20568;-72
2020/12/26 06:38:13;;;;;;;11.32;5.03;;;1.70;89.00;;;;;;5035623;28;20107;-72
2020/12/26 06:40:53;;;;;;;9.52;4.43;;;1.60;89.10;;;;;;5049262;28;20373;-72
2020/12/26 06:43:44;;;;;;;8.30;4.40;;;1.60;89.20;;;;;;5034901;28;20086;-73
2020/12/26 06:46:21;;;;;;;10.98;4.30;;;1.60;89.20;;;;;;5033506;28;20124;-73
2020/12/26 06:48:55;;;;;;;11.40;5.03;;;1.60;89.30;;;;;;5038018;28;20400;-74
2020/12/26 06:51:31;;;;;;;12.98;5.55;;;1.60;89.40;;;;;;5044515;28;20029;-76
2020/12/26 06:54:03;;;;;;;11.57;4.88;;;1.60;89.30;;;;;;5040401;28;20076;-71
2020/12/26 06:56:34;;;;;;;10.70;4.95;;;1.60;89.50;;;;;;5067395;28;20605;-72
2020/12/26 06:59:07;;;;;;;10.93;5.22;;;1.60;89.50;;;;;;5060521;28;20492;-73
2020/12/26 07:01:34;;;;;;;12.40;6.25;;;1.60;89.50;;;;;;5061209;28;20037;-72
2020/12/26 07:04:14;;;;;;;11.82;6.15;;;1.60;89.50;;;;;;5042302;28;20146;-72
2020/12/26 07:06:54;;;;;;;12.98;7.22;;;1.50;89.60;;;;;;5055299;28;20044;-72
2020/12/26 07:09:41;;;;;;;11.13;6.78;;;1.50;89.70;;;;;;5036635;28;20086;-73
2020/12/26 07:12:11;;;;;;;12.25;6.63;;;1.50;89.80;;;;;;5043719;28;20388;-72
2020/12/26 07:14:49;;;;;;;11.85;5.82;;;1.50;89.80;;;;;;5043005;28;20434;-72
2020/12/26 07:17:15;;;;;;;11.57;6.30;;;1.50;89.90;;;;;;5041227;28;20530;-72
2020/12/26 07:19:47;;;;;;;12.10;5.90;;;1.50;90.00;;;;;;5044387;28;20535;-72
2020/12/26 07:22:23;;;;;;;12.05;5.78;;;1.50;90.10;;;;;;5059831;28;20033;-72
2020/12/26 07:24:53;;;;;;;9.50;5.82;;;1.50;90.10;;;;;;5050811;28;20040;-74
2020/12/26 07:27:31;;;;;;;12.55;5.57;;;1.50;90.10;;;;;;5061065;28;20479;-72
2020/12/26 07:30:00;;;;;;;10.82;5.70;;;1.40;90.10;;;;;;5060025;28;20545;-72
2020/12/26 07:32:58;;;;;;;11.40;5.93;;;1.50;90.20;;;;;;5060142;28;20041;-72
2020/12/26 07:35:24;;;;;;;9.95;6.45;;;1.50;90.20;;;;;;5055772;28;20033;-72
2020/12/26 07:37:52;;;;;;;15.32;6.53;;;1.50;90.30;;;;;;5073249;28;20123;-74
2020/12/26 07:40:27;;;;;;;14.40;6.97;;;1.50;90.20;;;;;;5064945;28;20045;-74
2020/12/26 07:42:53;;;;;;;11.30;6.60;;;1.60;90.30;;;;;;5047725;28;20056;-72
2020/12/26 07:45:26;;;;;;;12.40;7.60;;;1.70;90.40;;;;;;5063003;28;20123;-72
2020/12/26 07:47:54;;;;;;;12.70;7.47;;;1.70;90.30;;;;;;5053006;28;20063;-72
2020/12/26 07:50:24;;;;;;;13.27;7.15;;;1.80;90.40;;;;;;5061907;28;20116;-72
2020/12/26 07:53:03;;;;;;;11.95;6.55;;;1.90;90.20;;;;;;5063216;28;20111;-78
2020/12/26 07:55:29;;;;;;;15.25;7.55;;;1.90;90.10;;;;;;5068639;28;20143;-73
2020/12/26 07:58:19;;;;;;;14.23;8.35;;;2.00;90.00;;;;;;5064449;28;20078;-73
2020/12/26 08:00:45;;;;;;;16.67;8.43;;;2.10;89.90;;;;;;5065496;28;20553;-73
2020/12/26 08:03:12;;;;;;;14.05;7.50;;;2.10;89.70;;;;;;5068193;28;20150;-72
2020/12/26 08:05:40;;;;;;;11.10;6.45;;;2.10;89.70;;;;;;5066775;28;20430;-72
2020/12/26 08:08:23;;;;;;;12.68;7.15;;;2.20;89.60;;;;;;5049286;28;20076;-72
2020/12/26 08:10:57;;;;;;;12.25;7.53;;;2.20;89.50;;;;;;5046827;28;20476;-72
2020/12/26 08:13:23;;;;;;;15.23;7.05;;;2.30;89.50;;;;;;5045798;28;20025;-72
2020/12/26 08:15:48;;;;;;;13.32;7.47;;;2.40;89.40;;;;;;5047620;28;20439;-73
2020/12/26 08:18:20;;;;;;;11.35;7.60;;;2.30;89.30;;;;;;5047288;28;20036;-74
2020/12/26 08:20:46;;;;;;;13.52;6.90;;;2.40;89.30;;;;;;5052057;28;20102;-74
2020/12/26 08:23:12;;;;;;;13.10;6.90;;;2.40;89.30;;;;;;5064336;28;20471;-74
2020/12/26 08:25:38;;;;;;;11.48;6.82;;;2.60;89.20;;;;;;5067758;28;20063;-74
2020/12/26 08:28:05;;;;;;;11.50;7.28;;;2.60;89.10;;;;;;5071564;28;20056;-73
2020/12/26 08:30:35;;;;;;;12.50;6.60;;;2.60;89.00;;;;;;5062766;28;20079;-73
2020/12/26 08:33:18;;;;;;;10.25;6.18;;;2.60;88.90;;;;;;5060251;28;20036;-77
2020/12/26 08:35:55;;;;;;;13.88;6.05;;;2.70;88.90;;;;;;5057457;28;20124;-73
2020/12/26 08:38:28;;;;;;;11.00;6.00;;;2.80;88.70;;;;;;5064935;28;20033;-74
2020/12/26 08:40:56;;;;;;;11.02;6.63;;;2.90;88.50;;;;;;5068874;28;20062;-73
2020/12/26 08:43:23;;;;;;;11.35;6.72;;;2.90;88.20;;;;;;5066383;28;20464;-72
2020/12/26 08:45:48;;;;;;;15.27;6.85;;;2.90;88.20;;;;;;5063448;28;20032;-73
2020/12/26 08:48:17;;;;;;;14.73;7.57;;;2.90;88.30;;;;;;5067041;28;20032;-72
2020/12/26 08:50:52;;;;;;;15.45;7.60;;;3.00;88.00;;;;;;5063312;28;20063;-73
2020/12/26 08:53:20;;;;;;;11.07;7.35;;;3.10;87.90;;;;;;5067211;28;20037;-73
2020/12/26 08:55:56;;;;;;;11.48;6.68;;;3.20;87.80;;;;;;5067620;28;20051;-73
2020/12/26 08:58:30;;;;;;;14.25;7.20;;;3.30;87.60;;;;;;5063017;28;20054;-73
2020/12/26 09:01:05;;;;;;;11.20;6.10;;;3.40;87.30;;;;;;5070281;28;20043;-72
2020/12/26 09:03:34;;;;;;;10.30;6.47;;;3.40;87.00;;;;;;5063676;28;20041;-73
2020/12/26 09:06:02;;;;;;;11.88;6.18;;;3.40;86.80;;;;;;5064414;28;20047;-73
2020/12/26 09:08:30;;;;;;;11.63;6.28;;;3.50;87.00;;;;;;5063502;28;20043;-74
2020/12/26 09:10:58;;;;;;;12.20;7.03;;;3.60;87.00;;;;;;5062273;28;20021;-72
2020/12/26 09:13:37;;;;;;;13.07;6.45;;;3.60;87.00;;;;;;5066005;28;20103;-73
2020/12/26 09:16:14;;;;;;;10.63;6.05;;;3.60;87.00;;;;;;5057976;28;20522;-72
2020/12/26 09:18:43;;;;;;;9.88;5.82;;;3.60;87.10;;;;;;5063055;28;20040;-73
2020/12/26 09:21:20;;;;;;;12.25;5.85;;;3.60;87.20;;;;;;5067161;28;20094;-73
2020/12/26 09:23:47;;;;;;;10.68;6.13;;;3.60;87.20;;;;;;5072094;28;20525;-73
2020/12/26 09:26:18;;;;;;;12.35;6.22;;;3.60;86.90;;;;;;5072741;28;20035;-74
2020/12/26 09:28:54;;;;;;;11.52;5.97;;;3.80;86.80;;;;;;5067343;28;20055;-72
2020/12/26 09:31:25;;;;;;;12.15;6.47;;;3.80;86.70;;;;;;5066698;28;20033;-73
2020/12/26 09:33:52;;;;;;;9.77;6.10;;;3.80;86.80;;;;;;5071774;28;20086;-75
2020/12/26 09:36:20;;;;;;;11.48;5.72;;;3.90;86.50;;;;;;5059681;28;20079;-74
2020/12/26 09:38:47;;;;;;;13.02;7.85;;;3.90;86.70;;;;;;5067283;28;20033;-74
2020/12/26 09:41:18;;;;;;;14.52;7.57;;;3.90;86.90;;;;;;5063759;28;20047;-73
2020/12/26 09:43:45;;;;;;;15.02;7.82;;;4.00;86.90;;;;;;5059981;28;20098;-76
2020/12/26 09:46:11;;;;;;;12.85;7.28;;;4.00;86.80;;;;;;5064655;28;20150;-73
2020/12/26 09:48:36;;;;;;;11.05;6.75;;;4.10;86.80;;;;;;5065115;28;20123;-73
2020/12/26 09:51:03;;;;;;;11.85;6.45;;;4.10;86.60;;;;;;5069426;28;20039;-75
2020/12/26 09:53:28;;;;;;;12.80;6.75;;;4.10;86.80;;;;;;5064070;28;20040;-75
2020/12/26 09:55:54;;;;;;;12.93;6.85;;;4.10;86.60;;;;;;5079756;28;20024;-73
2020/12/26 09:58:20;;;;;;;11.77;7.20;;;4.10;86.70;;;;;;5056549;28;20039;-73
2020/12/26 10:00:45;;;;;;;13.73;7.07;;;4.10;86.40;;;;;;5051283;28;20480;-72
2020/12/26 10:03:11;;;;;;;12.02;7.45;;;4.20;86.70;;;;;;5056702;28;20120;-74
2020/12/26 10:05:37;;;;;;;11.60;6.50;;;4.30;86.60;;;;;;5053234;28;20086;-73
2020/12/26 10:08:02;;;;;;;14.75;6.85;;;4.20;86.40;;;;;;5064038;28;20028;-72
2020/12/26 10:10:28;;;;;;;13.30;7.03;;;4.30;86.70;;;;;;5063368;28;20395;-69
2020/12/26 10:12:53;;;;;;;13.73;6.50;;;4.30;86.80;;;;;;5063658;28;20338;-70
2020/12/26 10:15:19;;;;;;;10.32;6.13;;;4.30;86.60;;;;;;5061582;28;20175;-73
2020/12/26 10:17:45;;;;;;;11.23;6.35;;;4.30;86.90;;;;;;5050994;28;20037;-69
2020/12/26 10:20:11;;;;;;;10.82;7.10;;;4.40;86.80;;;;;;5046988;28;20033;-68
2020/12/26 10:22:36;;;;;;;10.88;6.43;;;4.50;86.50;;;;;;5055263;28;20043;-69
2020/12/26 10:25:03;;;;;;;13.10;6.43;;;4.40;86.40;;;;;;5065462;28;20420;-71
2020/12/26 10:27:28;;;;;;;13.00;5.65;;;4.60;86.60;;;;;;5059011;28;20037;-68
2020/12/26 10:29:54;;;;;;;11.23;5.97;;;4.60;86.60;;;;;;5051684;28;20028;-69
2020/12/26 10:32:19;;;;;;;12.95;6.30;;;4.70;86.30;;;;;;5054125;28;20455;-70
2020/12/26 10:34:45;;;;;;;14.82;7.88;;;4.80;86.40;;;;;;5035784;28;20473;-69
2020/12/26 10:37:15;;;;;;;16.60;9.70;;;4.80;86.10;;;;;;5044394;28;20061;-72
2020/12/26 10:39:41;;;;;;;19.48;13.68;;;4.90;86.00;;;;;;5047281;28;20029;-72
2020/12/26 10:42:06;;;;;;;10.60;6.22;;;4.90;85.90;;;;;;5051703;28;20488;-69
2020/12/26 10:44:32;;;;;;;12.38;6.30;;;5.00;85.50;;;;;;5048363;28;20459;-70
2020/12/26 10:46:58;;;;;;;10.70;6.38;;;5.10;85.50;;;;;;5043764;28;20040;-69
2020/12/26 10:49:23;;;;;;;10.98;6.00;;;5.10;85.50;;;;;;5053975;28;20040;-70
2020/12/26 10:51:49;;;;;;;12.05;6.55;;;5.10;85.20;;;;;;5060846;28;20532;-70
2020/12/26 10:54:15;;;;;;;11.90;6.22;;;5.10;85.30;;;;;;5065866;28;20071;-69
2020/12/26 10:56:50;;;;;;;11.68;6.45;;;5.10;85.50;;;;;;5062461;28;20399;-71
2020/12/26 10:59:15;;;;;;;13.15;5.97;;;5.10;85.40;;;;;;5065091;28;20043;-70
2020/12/26 11:01:41;;;;;;;9.07;5.43;;;5.10;85.20;;;;;;5065106;28;20024;-73
2020/12/26 11:04:07;;;;;;;13.05;6.35;;;5.10;85.30;;;;;;5063968;28;20032;-69
2020/12/26 11:06:33;;;;;;;9.55;5.80;;;5.10;85.30;;;;;;5065529;28;20079;-70
2020/12/26 11:08:59;;;;;;;10.30;5.80;;;5.20;85.40;;;;;;5043425;28;20053;-69
2020/12/26 11:11:25;;;;;;;16.65;6.30;;;5.30;85.10;;;;;;5045525;28;20021;-69
2020/12/26 11:13:51;;;;;;;16.27;6.60;;;5.20;85.30;;;;;;5050585;28;20033;-70
2020/12/26 11:16:17;;;;;;;8.68;5.40;;;5.40;85.20;;;;;;5050440;28;20383;-72
2020/12/26 11:18:44;;;;;;;15.25;5.75;;;5.40;85.10;;;;;;5046559;28;20419;-69
2020/12/26 11:21:15;;;;;;;12.55;5.60;;;5.40;85.30;;;;;;5058323;28;20029;-69
2020/12/26 11:23:41;;;;;;;11.05;6.18;;;5.50;85.00;;;;;;5053955;28;21661;-69
2020/12/26 11:26:06;;;;;;;12.43;6.55;;;5.50;85.10;;;;;;5050879;28;20017;-69
2020/12/26 11:28:32;;;;;;;11.85;6.63;;;5.60;85.30;;;;;;5050322;28;20483;-69
2020/12/26 11:30:58;;;;;;;11.55;6.47;;;5.60;85.20;;;;;;5046403;28;20552;-69
2020/12/26 11:33:23;;;;;;;12.93;6.10;;;5.60;85.10;;;;;;5052145;28;20036;-70
2020/12/26 11:35:49;;;;;;;11.25;5.75;;;5.60;85.20;;;;;;5047544;28;20360;-69
2020/12/26 11:38:15;;;;;;;10.48;5.55;;;5.60;85.10;;;;;;5057673;28;20021;-71
2020/12/26 11:40:40;;;;;;;12.27;5.65;;;5.60;85.20;;;;;;5043050;28;20412;-71
2020/12/26 11:43:06;;;;;;;12.50;6.97;;;5.60;85.30;;;;;;5037955;28;20491;-70
2020/12/26 11:45:32;;;;;;;11.82;7.43;;;5.60;85.50;;;;;;5054678;28;20044;-69
2020/12/26 11:47:57;;;;;;;12.90;6.57;;;5.60;85.70;;;;;;5050294;28;20033;-69
2020/12/26 11:50:23;;;;;;;10.85;5.97;;;5.60;85.70;;;;;;5065869;28;20032;-71
2020/12/26 11:52:49;;;;;;;13.00;7.20;;;5.60;85.70;;;;;;5068283;28;20478;-70
2020/12/26 11:55:14;;;;;;;18.10;7.32;;;5.60;85.90;;;;;;5070297;28;20422;-69
2020/12/26 11:57:40;;;;;;;12.25;7.80;;;5.60;86.40;;;;;;5067374;28;20042;-69
2020/12/26 12:00:06;;;;;;;13.20;7.75;;;5.60;86.70;;;;;;5065139;28;21292;-69
2020/12/26 12:02:31;;;;;;;14.05;8.50;;;5.70;87.30;;;;;;5065725;28;20137;-70
2020/12/26 12:04:57;;;;;;;11.70;7.28;;;5.70;87.60;;;;;;5068658;28;20035;-69
2020/12/26 12:07:23;;;;;;;14.02;8.45;;;5.70;87.60;;;;;;5070280;28;20591;-73
2020/12/26 12:09:49;;;;;;;14.48;8.55;;;5.60;87.70;;;;;;5061808;28;20491;-75
2020/12/26 12:12:14;;;;;;;12.55;7.97;;;5.70;87.70;;;;;;5064152;28;20047;-73
2020/12/26 12:14:40;;;;;;;12.85;8.98;;;5.70;87.70;;;;;;5063125;28;20380;-70
2020/12/26 12:17:06;;;;;;;12.93;7.82;;;5.70;87.90;;;;;;5064383;28;20044;-70
2020/12/26 12:19:31;;;;;;;14.18;9.13;;;5.60;87.80;;;;;;5064589;28;20028;-70
2020/12/26 12:21:57;;;;;;;12.63;8.13;;;5.60;88.10;;;;;;5065930;28;20031;-70
2020/12/26 12:24:22;;;;;;;14.95;9.77;;;5.60;88.50;;;;;;5058360;28;20029;-71
2020/12/26 12:26:48;;;;;;;14.25;8.85;;;5.60;88.90;;;;;;5066788;28;20028;-70
2020/12/26 12:29:14;;;;;;;14.65;9.30;;;5.60;89.30;;;;;;5066198;28;20102;-71
2020/12/26 12:31:40;;;;;;;13.60;9.10;;;5.60;89.50;;;;;;5066509;28;20032;-70
2020/12/26 12:34:07;;;;;;;13.80;9.77;;;5.70;89.50;;;;;;5062521;28;20040;-71
2020/12/26 12:36:33;;;;;;;16.15;9.70;;;5.70;89.30;;;;;;5067218;28;20033;-71
2020/12/26 12:38:59;;;;;;;13.70;9.43;;;5.70;89.20;;;;;;5065879;28;20029;-71
2020/12/26 12:41:24;;;;;;;15.32;9.38;;;5.80;89.20;;;;;;5063547;28;20043;-70
2020/12/26 12:43:51;;;;;;;14.20;8.95;;;5.90;89.10;;;;;;5066869;28;20028;-71
2020/12/26 12:46:16;;;;;;;13.60;8.60;;;5.90;88.80;;;;;;5063910;28;20036;-71
2020/12/26 12:48:42;;;;;;;12.52;8.25;;;6.00;88.60;;;;;;5065273;28;20364;-72
2020/12/26 12:51:08;;;;;;;13.65;8.90;;;6.10;88.70;;;;;;5062739;28;20029;-71